createdAt,value
2023-01-12T00:04:16.355Z,100204.10
2023-01-12T00:09:20.691Z,100203.54
2023-01-12T00:14:25.843Z,100213.02
2023-01-12T00:19:29.634Z,100215.34
2023-01-12T00:24:35.039Z,100224.31
2023-01-12T00:29:39.013Z,100232.05
2023-01-12T00:34:43.513Z,100233.95
2023-01-12T00:40:01.028Z,100239.54
2023-01-12T00:45:25.686Z,100240.97
2023-01-12T00:50:29.354Z,100251.34
2023-01-12T00:55:33.095Z,100266.34
2023-01-12T01:00:37.876Z,100271.34
2023-01-12T01:05:41.478Z,100276.80
2023-01-12T01:10:46.946Z,100276.21
2023-01-12T01:15:50.673Z,100284.81
2023-01-12T01:20:55.354Z,100285.17
2023-01-12T01:26:07.529Z,100287.84
2023-01-12T01:31:19.238Z,100290.88
2023-01-12T01:36:23.116Z,100297.66
2023-01-12T01:41:32.696Z,100305.15
2023-01-12T01:46:39.102Z,100307.52
2023-01-12T01:51:44.435Z,100301.90
2023-01-12T01:56:48.847Z,100296.48
2023-01-12T02:01:53.515Z,100298.23
2023-01-12T02:06:58.425Z,100295.13
2023-01-12T02:12:24.645Z,100286.00
2023-01-12T02:18:04.953Z,100284.61
2023-01-12T02:24:10.343Z,100289.42
2023-01-12T02:29:46.404Z,100300.54
2023-01-12T02:35:27.391Z,100306.81
2023-01-12T02:40:53.697Z,100306.27
2023-01-12T02:46:03.161Z,100305.42
2023-01-12T02:51:19.349Z,100303.27
2023-01-12T02:56:32.314Z,100303.06
2023-01-12T03:01:37.695Z,100299.19
2023-01-12T03:07:04.679Z,100304.35
2023-01-12T03:12:17.459Z,100305.06
2023-01-12T03:17:33.605Z,100304.63
2023-01-12T03:22:38.747Z,100306.56
2023-01-12T03:27:46.476Z,100303.71
2023-01-12T03:32:51.574Z,100299.05
2023-01-12T03:37:58.002Z,100297.77
2023-01-12T03:43:27.273Z,100288.20
2023-01-12T03:49:06.425Z,100284.48
2023-01-12T03:54:11.825Z,100293.10
2023-01-12T03:59:17.379Z,100306.36
2023-01-12T04:04:23.056Z,100306.05
2023-01-12T04:09:26.861Z,100312.83
2023-01-12T04:14:30.637Z,100314.61
2023-01-12T04:19:37.384Z,100312.57
2023-01-12T04:24:42.635Z,100306.41
2023-01-12T04:29:46.878Z,100305.16
2023-01-12T04:34:53.490Z,100298.88
2023-01-12T04:39:57.861Z,100308.34
2023-01-12T04:45:01.687Z,100314.27
2023-01-12T04:50:06.857Z,100320.94
2023-01-12T04:55:10.492Z,100311.66
2023-01-12T05:00:14.950Z,100302.67
2023-01-12T05:05:19.117Z,100299.60
2023-01-12T05:10:22.993Z,100293.92
2023-01-12T05:15:27.940Z,100292.63
2023-01-12T05:20:35.148Z,100289.81
2023-01-12T05:25:39.830Z,100295.88
2023-01-12T05:30:43.562Z,100298.65
2023-01-12T05:35:47.754Z,100293.05
2023-01-12T05:40:51.386Z,100277.58
2023-01-12T05:45:55.523Z,100281.89
2023-01-12T05:51:09.335Z,100297.91
2023-01-12T05:56:36.907Z,100292.52
2023-01-12T06:01:42.279Z,100301.17
2023-01-12T06:06:46.988Z,100307.16
2023-01-12T06:12:12.099Z,100312.80
2023-01-12T06:17:15.853Z,100303.70
2023-01-12T06:22:23.376Z,100302.45
2023-01-12T06:27:27.040Z,100297.02
2023-01-12T06:32:33.534Z,100294.73
2023-01-12T06:37:40.592Z,100297.61
2023-01-12T06:42:44.670Z,100304.66
2023-01-12T06:47:51.785Z,100295.70
2023-01-12T06:53:00.084Z,100284.30
2023-01-12T06:58:07.197Z,100284.05
2023-01-12T07:03:20.840Z,100280.41
2023-01-12T07:08:24.465Z,100282.23
2023-01-12T07:13:28.301Z,100293.81
2023-01-12T07:18:32.742Z,100297.60
2023-01-12T07:23:39.235Z,100287.41
2023-01-12T07:28:43.969Z,100285.02
2023-01-12T07:33:48.166Z,100281.73
2023-01-12T07:38:52.253Z,100286.16
2023-01-12T07:43:56.512Z,100286.33
2023-01-12T07:49:00.172Z,100289.05
2023-01-12T07:54:04.348Z,100289.86
2023-01-12T07:59:08.522Z,100288.59
2023-01-12T08:04:12.248Z,100291.17
2023-01-12T08:09:16.117Z,100288.76
2023-01-12T08:14:33.989Z,100287.61
2023-01-12T08:19:45.227Z,100280.13
2023-01-12T08:24:57.227Z,100277.75
2023-01-12T08:30:04.716Z,100277.96
2023-01-12T08:35:09.518Z,100288.31
2023-01-12T08:40:14.735Z,100289.69
2023-01-12T08:45:18.717Z,100288.30
2023-01-12T08:50:22.554Z,100284.71
2023-01-12T08:55:26.299Z,100287.38
2023-01-12T09:00:30.865Z,100287.23
2023-01-12T09:05:34.816Z,100281.09
2023-01-12T09:10:38.475Z,100285.43
2023-01-12T09:15:56.444Z,100283.41
2023-01-12T09:21:13.637Z,100278.23
2023-01-12T09:26:20.380Z,100274.27
2023-01-12T09:31:24.324Z,100272.29
2023-01-12T09:36:34.098Z,100271.18
2023-01-12T09:42:09.184Z,100269.96
2023-01-12T09:47:41.171Z,100264.98
2023-01-12T09:52:58.407Z,100254.14
2023-01-12T09:58:36.396Z,100256.30
2023-01-12T10:03:44.066Z,100250.57
2023-01-12T10:08:55.236Z,100249.66
2023-01-12T10:14:32.915Z,100241.69
2023-01-12T10:20:02.818Z,100238.23
2023-01-12T10:25:50.085Z,100233.09
2023-01-12T10:30:56.566Z,100227.39
2023-01-12T10:36:19.891Z,100227.41
2023-01-12T10:41:43.108Z,100217.08
2023-01-12T10:47:08.466Z,100213.27
2023-01-12T10:52:32.662Z,100208.55
2023-01-12T10:57:36.427Z,100193.13
2023-01-12T11:02:44.572Z,100179.64
2023-01-12T11:07:50.118Z,100167.54
2023-01-12T11:12:59.250Z,100151.74
2023-01-12T11:18:44.668Z,100138.09
2023-01-12T11:24:32.397Z,100129.27
2023-01-12T11:30:26.544Z,100118.61
2023-01-12T11:35:37.659Z,100110.08
2023-01-12T11:40:42.131Z,100105.40
2023-01-12T11:45:54.223Z,100091.20
2023-01-12T11:51:02.326Z,100088.58
2023-01-12T11:56:09.532Z,100088.62
2023-01-12T12:01:32.010Z,100081.05
2023-01-12T12:07:16.337Z,100078.48
2023-01-12T12:13:04.988Z,100081.22
2023-01-12T12:18:28.956Z,100081.70
2023-01-12T12:24:20.334Z,100077.16
2023-01-12T12:30:09.015Z,100063.80
2023-01-12T12:35:39.647Z,100054.93
2023-01-12T12:41:41.730Z,100057.63
2023-01-12T12:47:01.096Z,100050.40
2023-01-12T12:52:08.491Z,100048.45
2023-01-12T13:02:39.372Z,100041.21
2023-01-12T13:07:44.568Z,100049.77
2023-01-12T13:13:01.752Z,100050.09
2023-01-12T13:18:07.482Z,100048.71
2023-01-12T13:23:45.442Z,100043.88
2023-01-12T13:28:49.643Z,100043.47
2023-01-12T13:34:31.642Z,100041.59
2023-01-12T13:39:36.630Z,100039.55
2023-01-12T13:44:43.309Z,100030.27
2023-01-12T13:49:51.351Z,100031.46
2023-01-12T13:54:55.089Z,100027.08
2023-01-12T14:00:22.430Z,100026.34
2023-01-12T14:05:35.237Z,100026.21
2023-01-12T14:11:16.959Z,100023.23
2023-01-12T14:16:39.909Z,100015.79
2023-01-12T14:21:45.662Z,100013.86
2023-01-12T14:26:49.575Z,100006.64
2023-01-12T14:31:54.612Z,100002.95
2023-01-12T14:36:59.231Z,99995.39
2023-01-12T14:42:25.529Z,99992.63
2023-01-12T14:47:31.768Z,99997.29
2023-01-12T14:52:36.444Z,99989.90
2023-01-12T14:57:40.239Z,99992.55
2023-01-12T15:02:44.009Z,99991.59
2023-01-12T15:07:56.473Z,99989.56
2023-01-12T15:13:25.329Z,99985.80
2023-01-12T15:18:47.512Z,99981.42
2023-01-12T15:24:10.109Z,99980.49
2023-01-12T15:29:13.954Z,99974.91
2023-01-12T15:34:19.228Z,99964.85
2023-01-12T15:39:22.948Z,99966.38
2023-01-12T15:44:26.845Z,99964.67
2023-01-12T15:49:35.180Z,99965.27
2023-01-12T15:54:40.731Z,99958.05
2023-01-12T15:59:45.352Z,99956.49
2023-01-12T16:04:49.104Z,99951.90
2023-01-12T16:09:54.953Z,99950.52
2023-01-12T16:14:59.195Z,99944.30
2023-01-12T16:20:02.987Z,99941.83
2023-01-12T16:25:07.976Z,99942.94
2023-01-12T16:30:17.455Z,99944.33
2023-01-12T16:35:21.306Z,99948.60
2023-01-12T16:40:25.163Z,99948.47
2023-01-12T16:45:29.048Z,99934.56
2023-01-12T16:50:32.924Z,99932.66
2023-01-12T16:55:38.264Z,99928.73
2023-01-12T17:00:42.865Z,99922.71
2023-01-12T17:05:50.136Z,99923.60
2023-01-12T17:10:54.817Z,99920.62
2023-01-12T17:15:59.475Z,99920.98
2023-01-12T17:21:07.394Z,99917.73
2023-01-12T17:26:14.450Z,99911.89
2023-01-12T17:31:20.952Z,99913.31
2023-01-12T17:36:24.787Z,99908.55
2023-01-12T17:41:53.405Z,99910.54
2023-01-12T17:46:58.033Z,99909.16
2023-01-12T17:52:05.776Z,99908.48
2023-01-12T17:57:09.798Z,99901.95
2023-01-12T18:02:18.613Z,99903.91
2023-01-12T18:07:22.856Z,99902.29
2023-01-12T18:12:27.723Z,99901.81
2023-01-12T18:17:32.168Z,99900.70
2023-01-12T18:22:38.462Z,99905.60
2023-01-12T18:27:45.049Z,99899.40
2023-01-12T18:32:49.129Z,99889.52
2023-01-12T18:37:53.756Z,99901.35
2023-01-12T18:42:58.685Z,99893.88
2023-01-12T18:48:21.688Z,99890.20
2023-01-12T18:53:25.978Z,99888.61
2023-01-12T18:58:32.307Z,99889.02
2023-01-12T19:03:36.989Z,99887.54
2023-01-12T19:09:01.141Z,99886.80
2023-01-12T19:14:29.288Z,99880.80
2023-01-12T19:19:35.324Z,99885.64
2023-01-12T19:25:11.932Z,99885.86
2023-01-12T19:30:24.428Z,99888.83
2023-01-12T19:35:31.286Z,99888.96
2023-01-12T19:40:46.467Z,99882.42
2023-01-12T19:45:57.593Z,99874.96
2023-01-12T19:51:10.582Z,99874.34
2023-01-12T19:56:15.897Z,99871.59
2023-01-12T20:01:22.406Z,99866.61
2023-01-12T20:06:32.626Z,99856.77
2023-01-12T20:11:37.976Z,99852.21
2023-01-12T20:16:44.805Z,99852.68
2023-01-12T20:21:50.337Z,99850.98
2023-01-12T20:26:56.806Z,99849.55
2023-01-12T20:32:03.008Z,99847.78
2023-01-12T20:37:08.975Z,99844.83
2023-01-12T20:42:13.957Z,99843.62
2023-01-12T20:47:19.678Z,99841.92
2023-01-12T20:52:25.077Z,99840.91
2023-01-12T20:57:35.698Z,99839.92
2023-01-12T21:02:41.184Z,99836.84
2023-01-12T21:07:44.906Z,99839.06
2023-01-12T21:12:51.725Z,99839.40
2023-01-12T21:17:58.613Z,99839.39
2023-01-12T21:23:03.942Z,99838.68
2023-01-12T21:28:07.865Z,99840.52
2023-01-12T21:33:12.258Z,99840.06
2023-01-12T21:38:16.482Z,99837.79
2023-01-12T21:43:20.881Z,99838.46
2023-01-12T21:48:28.432Z,99833.74
2023-01-12T21:53:32.696Z,99833.84
2023-01-12T21:58:38.104Z,99828.33
2023-01-12T22:03:47.104Z,99825.70
2023-01-12T22:08:53.035Z,99830.93
2023-01-12T22:14:02.958Z,99827.50
2023-01-12T22:19:13.417Z,99825.74
2023-01-12T22:24:23.815Z,99828.20
2023-01-12T22:29:30.040Z,99829.67
2023-01-12T22:34:34.196Z,99821.02
2023-01-12T22:39:38.503Z,99818.19
2023-01-12T22:44:45.396Z,99816.20
2023-01-12T22:49:53.983Z,99808.65
2023-01-12T22:54:58.116Z,99803.31
2023-01-12T23:00:02.571Z,99799.27
2023-01-12T23:05:08.383Z,99789.50
2023-01-12T23:10:12.332Z,99790.69
2023-01-12T23:15:17.080Z,99786.48
2023-01-12T23:20:20.931Z,99789.40
2023-01-12T23:25:24.890Z,99786.69
2023-01-12T23:30:31.058Z,99785.83
2023-01-12T23:35:42.631Z,99781.83
2023-01-12T23:40:46.600Z,99779.39
2023-01-12T23:45:51.505Z,99774.33
2023-01-12T23:50:59.554Z,99771.42
2023-01-12T23:56:11.486Z,99777.61
